createdAt,value
2018-08-09T00:01:25.472Z,14.10
2018-08-09T00:03:53.291Z,14.20
2018-08-09T00:06:21.083Z,14.20
2018-08-09T00:08:48.955Z,14.10
2018-08-09T00:11:16.721Z,14.00
2018-08-09T00:13:44.533Z,14.00
2018-08-09T00:16:13.381Z,14.10
2018-08-09T00:18:41.146Z,14.30
2018-08-09T00:23:59.246Z,14.70
2018-08-09T00:26:27.083Z,14.90
2018-08-09T00:28:54.901Z,15.00
2018-08-09T00:31:22.804Z,15.10
2018-08-09T00:33:50.601Z,15.20
2018-08-09T00:36:18.417Z,15.30
2018-08-09T00:38:46.177Z,15.30
2018-08-09T00:41:13.979Z,15.40
2018-08-09T00:43:41.756Z,15.50
2018-08-09T00:46:09.686Z,15.50
2018-08-09T00:48:37.511Z,15.60
2018-08-09T00:51:05.299Z,15.60
2018-08-09T00:53:33.103Z,15.60
2018-08-09T00:56:00.874Z,15.60
2018-08-09T00:58:28.674Z,15.70
2018-08-09T01:00:56.463Z,15.70
2018-08-09T01:03:24.241Z,15.70
2018-08-09T01:05:51.972Z,15.80
2018-08-09T01:08:19.748Z,15.90
2018-08-09T01:10:47.571Z,16.10
2018-08-09T01:13:15.372Z,16.10
2018-08-09T01:15:43.293Z,16.10
2018-08-09T01:18:11.364Z,16.20
2018-08-09T01:20:39.141Z,16.30
2018-08-09T01:23:06.947Z,16.30
2018-08-09T01:25:34.743Z,16.40
2018-08-09T01:28:02.550Z,16.40
2018-08-09T01:30:30.359Z,16.50
2018-08-09T01:32:58.166Z,16.60
2018-08-09T01:35:25.897Z,16.60
2018-08-09T01:37:53.645Z,16.50
2018-08-09T01:40:21.458Z,16.40
2018-08-09T01:43:00.564Z,16.50
2018-08-09T01:45:28.352Z,16.50
2018-08-09T01:48:12.915Z,16.50
2018-08-09T01:50:41.687Z,16.50
2018-08-09T01:53:09.405Z,16.50
2018-08-09T01:55:38.218Z,16.40
2018-08-09T01:58:05.960Z,16.40
2018-08-09T02:00:33.786Z,16.40
2018-08-09T02:05:55.756Z,16.40
2018-08-09T02:08:23.606Z,16.50
2018-08-09T02:11:02.428Z,16.50
2018-08-09T02:17:41.097Z,16.60
2018-08-09T02:20:09.024Z,16.60
2018-08-09T02:26:36.843Z,16.60
2018-08-09T02:29:04.751Z,16.70
2018-08-09T02:42:54.062Z,16.80
2018-08-09T02:45:21.938Z,16.80
2018-08-09T02:51:25.853Z,16.90
2018-08-09T02:53:53.760Z,17.00
2018-08-09T02:56:30.920Z,17.00
2018-08-09T02:58:58.791Z,17.00
2018-08-09T03:01:47.323Z,16.90
2018-08-09T03:04:15.220Z,16.90
2018-08-09T03:07:18.696Z,16.80
2018-08-09T03:09:46.603Z,16.90
2018-08-09T03:14:42.947Z,17.00
2018-08-09T03:17:10.784Z,17.00
2018-08-09T03:20:00.744Z,17.00
2018-08-09T03:22:28.634Z,17.10
2018-08-09T03:24:57.407Z,17.10
2018-08-09T03:27:25.191Z,17.10
2018-08-09T03:29:53.073Z,17.10
2018-08-09T03:32:20.825Z,17.10
2018-08-09T03:34:48.608Z,17.20
2018-08-09T03:37:16.344Z,17.10
2018-08-09T03:39:44.128Z,17.00
2018-08-09T03:42:11.974Z,17.10
2018-08-09T03:44:39.728Z,17.00
2018-08-09T03:47:07.453Z,16.90
2018-08-09T03:49:35.208Z,16.70
2018-08-09T03:52:03.023Z,16.60
2018-08-09T03:54:30.800Z,16.60
2018-08-09T03:56:58.568Z,16.60
2018-08-09T03:59:26.328Z,16.60
2018-08-09T04:01:54.125Z,16.50
2018-08-09T04:04:21.881Z,16.30
2018-08-09T04:06:49.648Z,16.20
2018-08-09T04:09:17.430Z,16.10
2018-08-09T04:11:45.263Z,16.00
2018-08-09T04:14:13.017Z,15.80
2018-08-09T04:16:40.786Z,15.70
2018-08-09T04:19:08.554Z,15.70
2018-08-09T04:21:36.302Z,15.70
2018-08-09T04:24:05.375Z,15.60
2018-08-09T04:26:33.204Z,15.50
2018-08-09T04:29:01.001Z,15.50
2018-08-09T04:31:28.756Z,15.40
2018-08-09T04:33:56.596Z,15.30
2018-08-09T04:36:24.423Z,15.20
2018-08-09T04:38:52.179Z,15.20
2018-08-09T04:41:20.170Z,15.20
2018-08-09T04:43:48.164Z,15.20
2018-08-09T04:46:16.160Z,15.30
2018-08-09T04:48:44.015Z,15.40
2018-08-09T04:51:11.903Z,15.50
2018-08-09T04:53:39.929Z,15.50
2018-08-09T04:56:07.802Z,15.60
2018-08-09T04:58:35.698Z,15.70
2018-08-09T05:01:03.599Z,15.80
2018-08-09T05:03:31.557Z,15.90
2018-08-09T05:05:59.449Z,15.90
2018-08-09T05:08:27.330Z,16.00
2018-08-09T05:10:55.204Z,16.00
2018-08-09T05:13:23.087Z,16.20
2018-08-09T05:15:50.998Z,16.30
2018-08-09T05:18:18.998Z,16.30
2018-08-09T05:20:46.895Z,16.50
2018-08-09T05:23:15.997Z,16.50
2018-08-09T05:25:43.793Z,16.50
2018-08-09T05:28:11.752Z,16.70
2018-08-09T05:30:39.614Z,16.80
2018-08-09T05:33:07.595Z,16.80
2018-08-09T05:35:35.479Z,16.80
2018-08-09T05:38:03.409Z,16.90
2018-08-09T05:40:31.292Z,17.00
2018-08-09T05:42:59.106Z,17.00
2018-08-09T05:45:27.616Z,17.10
2018-08-09T05:47:55.380Z,17.00
2018-08-09T05:50:23.154Z,17.10
2018-08-09T05:52:50.949Z,17.20
2018-08-09T05:55:18.682Z,17.30
2018-08-09T05:57:46.436Z,17.40
2018-08-09T06:00:14.211Z,17.50
2018-08-09T06:02:42.053Z,17.50
2018-08-09T06:05:09.891Z,17.60
2018-08-09T06:07:37.660Z,17.70
2018-08-09T06:10:06.477Z,17.70
2018-08-09T06:12:34.458Z,17.80
2018-08-09T06:15:02.303Z,17.90
2018-08-09T06:20:08.702Z,18.20
2018-08-09T06:22:36.447Z,18.20
2018-08-09T06:25:05.165Z,18.20
2018-08-09T06:27:33.992Z,18.20
2018-08-09T06:30:01.842Z,18.30
2018-08-09T06:32:29.627Z,18.30
2018-08-09T06:34:57.383Z,18.40
2018-08-09T06:37:25.152Z,18.60
2018-08-09T06:39:52.940Z,18.60
2018-08-09T06:42:20.707Z,18.60
2018-08-09T06:44:48.479Z,18.70
2018-08-09T06:47:16.306Z,18.90
2018-08-09T06:49:44.137Z,19.00
2018-08-09T06:52:11.882Z,19.10
2018-08-09T06:54:39.719Z,19.30
2018-08-09T06:57:07.565Z,19.40
2018-08-09T06:59:35.342Z,19.50
2018-08-09T07:02:03.324Z,19.60
2018-08-09T07:04:31.289Z,19.60
2018-08-09T07:07:01.061Z,19.60
2018-08-09T07:09:28.869Z,19.90
2018-08-09T07:11:57.339Z,20.00
2018-08-09T07:14:25.534Z,19.90
2018-08-09T07:16:53.593Z,20.10
2018-08-09T07:19:26.840Z,20.10
2018-08-09T07:21:54.822Z,20.10
2018-08-09T07:24:22.612Z,20.20
2018-08-09T07:26:50.373Z,20.40
2018-08-09T07:29:19.153Z,20.50
2018-08-09T07:31:46.938Z,20.60
2018-08-09T07:34:14.771Z,20.60
2018-08-09T07:36:42.588Z,20.80
2018-08-09T07:39:37.140Z,20.80
2018-08-09T07:42:04.941Z,21.10
2018-08-09T07:44:32.913Z,21.60
2018-08-09T07:47:00.762Z,21.30
2018-08-09T07:49:28.558Z,21.30
2018-08-09T07:51:56.327Z,21.10
2018-08-09T07:54:24.100Z,21.00
2018-08-09T07:56:51.887Z,21.00
2018-08-09T07:59:19.656Z,20.90
2018-08-09T08:01:47.446Z,20.80
2018-08-09T08:04:15.357Z,20.80
2018-08-09T08:06:43.124Z,20.90
2018-08-09T08:09:11.860Z,20.90
2018-08-09T08:11:39.746Z,20.90
2018-08-09T08:14:07.644Z,21.00
2018-08-09T08:16:35.452Z,21.20
2018-08-09T08:19:03.224Z,21.30
2018-08-09T08:21:31.057Z,21.20
2018-08-09T08:23:58.850Z,21.30
2018-08-09T08:26:26.639Z,21.50
2018-08-09T08:28:54.563Z,21.60
2018-08-09T08:31:22.482Z,21.50
2018-08-09T08:33:50.730Z,21.60
2018-08-09T08:36:18.689Z,21.30
2018-08-09T08:38:46.545Z,21.20
2018-08-09T08:41:15.494Z,20.90
2018-08-09T08:43:43.352Z,20.80
2018-08-09T08:46:11.951Z,20.90
2018-08-09T08:48:40.935Z,20.80
2018-08-09T08:51:09.194Z,20.90
2018-08-09T08:53:37.078Z,20.80
2018-08-09T08:56:10.987Z,20.90
2018-08-09T08:58:39.048Z,20.90
2018-08-09T09:01:06.915Z,21.00
2018-08-09T09:03:34.898Z,21.10
2018-08-09T09:06:05.914Z,21.00
2018-08-09T09:08:34.515Z,21.00
2018-08-09T09:11:03.205Z,21.10
2018-08-09T09:13:31.989Z,21.10
2018-08-09T09:16:00.366Z,21.20
2018-08-09T09:18:28.654Z,21.10
2018-08-09T09:20:59.123Z,21.20
2018-08-09T09:23:27.544Z,21.20
2018-08-09T09:25:55.627Z,21.20
2018-08-09T09:28:23.572Z,21.20
2018-08-09T09:30:52.523Z,21.20
2018-08-09T09:33:22.737Z,21.20
2018-08-09T09:35:50.737Z,21.10
2018-08-09T09:42:01.076Z,20.80
2018-08-09T09:44:28.977Z,20.50
2018-08-09T09:47:02.119Z,20.30
2018-08-09T09:49:30.011Z,20.10
2018-08-09T09:51:58.032Z,20.00
2018-08-09T09:54:25.920Z,19.90
2018-08-09T09:56:53.804Z,19.90
2018-08-09T09:59:21.756Z,20.00
2018-08-09T10:01:49.737Z,19.90
2018-08-09T10:04:17.641Z,19.80
2018-08-09T10:06:45.624Z,19.80
2018-08-09T10:09:13.530Z,19.70
2018-08-09T10:11:41.497Z,19.60
2018-08-09T10:14:09.435Z,19.60
2018-08-09T10:16:55.405Z,19.60
2018-08-09T10:19:23.318Z,19.50
2018-08-09T10:21:51.295Z,19.50
2018-08-09T10:24:19.250Z,19.40
2018-08-09T10:27:01.741Z,19.30
2018-08-09T10:29:29.597Z,19.30
2018-08-09T10:31:57.556Z,19.20
2018-08-09T10:34:25.454Z,19.10
2018-08-09T10:39:57.386Z,18.90
2018-08-09T10:42:25.396Z,18.80
2018-08-09T10:44:53.198Z,18.80
2018-08-09T10:47:21.845Z,18.80
2018-08-09T10:49:49.721Z,18.70
2018-08-09T10:52:17.545Z,18.70
2018-08-09T10:54:45.330Z,18.60
2018-08-09T10:57:13.209Z,18.40
2018-08-09T10:59:40.940Z,18.30
2018-08-09T11:02:08.734Z,18.20
2018-08-09T11:04:36.519Z,18.00
2018-08-09T11:07:04.335Z,18.00
2018-08-09T11:09:32.127Z,18.10
2018-08-09T11:11:59.934Z,18.10
2018-08-09T11:14:29.925Z,18.10
2018-08-09T11:16:57.866Z,18.10
2018-08-09T11:19:25.676Z,18.10
2018-08-09T11:21:53.515Z,18.00
2018-08-09T11:24:21.295Z,18.00
2018-08-09T11:26:49.109Z,17.90
2018-08-09T11:29:16.926Z,17.90
2018-08-09T11:31:44.692Z,17.80
2018-08-09T11:34:12.467Z,17.70
2018-08-09T11:36:40.255Z,17.70
2018-08-09T11:39:10.167Z,17.70
2018-08-09T11:41:37.922Z,17.60
2018-08-09T11:44:05.708Z,17.60
2018-08-09T11:46:33.466Z,17.70
2018-08-09T11:49:01.272Z,17.60
2018-08-09T11:51:29.074Z,17.50
2018-08-09T11:53:56.892Z,17.50
2018-08-09T11:56:24.684Z,17.50
2018-08-09T11:58:53.563Z,17.50
2018-08-09T12:01:21.329Z,17.60
2018-08-09T12:03:49.215Z,17.60
2018-08-09T12:06:17.062Z,17.70
2018-08-09T12:08:44.854Z,17.70
2018-08-09T12:11:12.857Z,17.70
2018-08-09T12:13:40.678Z,17.70
2018-08-09T12:16:08.938Z,17.70
2018-08-09T12:18:36.736Z,17.70
2018-08-09T12:21:17.103Z,17.60
2018-08-09T12:23:45.108Z,17.70
2018-08-09T12:26:12.993Z,17.80
2018-08-09T12:28:40.815Z,17.80
2018-08-09T12:31:08.568Z,17.80
2018-08-09T12:33:36.360Z,17.80
2018-08-09T12:36:04.377Z,17.80
2018-08-09T12:38:32.217Z,17.70
2018-08-09T12:40:59.982Z,17.70
2018-08-09T12:43:27.824Z,17.70
2018-08-09T12:45:55.685Z,17.70
2018-08-09T12:48:23.765Z,17.60
2018-08-09T12:50:51.766Z,17.70
2018-08-09T12:53:19.585Z,17.60
2018-08-09T12:56:27.427Z,17.70
2018-08-09T12:58:55.248Z,17.70
2018-08-09T13:01:23.079Z,17.80
2018-08-09T13:03:50.871Z,17.90
2018-08-09T13:06:18.647Z,18.00
2018-08-09T13:08:46.455Z,17.90
2018-08-09T13:11:18.898Z,17.90
2018-08-09T13:13:49.337Z,18.00
2018-08-09T13:16:17.357Z,17.90
2018-08-09T13:18:45.530Z,17.90
2018-08-09T13:21:13.560Z,17.80
2018-08-09T13:23:41.741Z,17.80
2018-08-09T13:26:09.637Z,17.80
2018-08-09T13:28:37.470Z,17.80
2018-08-09T13:31:05.590Z,17.70
2018-08-09T13:33:33.445Z,17.70
2018-08-09T13:36:01.359Z,17.70
2018-08-09T13:38:29.168Z,17.80
2018-08-09T13:40:57.622Z,17.90
2018-08-09T13:43:25.599Z,18.00
2018-08-09T13:45:53.595Z,18.10
2018-08-09T13:48:21.412Z,18.20
2018-08-09T13:50:49.262Z,18.20
2018-08-09T13:53:17.116Z,18.30
2018-08-09T13:55:44.894Z,18.40
2018-08-09T13:58:12.679Z,18.40
2018-08-09T14:00:40.603Z,18.40
2018-08-09T14:03:08.444Z,18.20
2018-08-09T14:05:36.316Z,18.30
2018-08-09T14:08:04.416Z,18.30
2018-08-09T14:10:33.532Z,18.30
2018-08-09T14:13:01.420Z,18.20
2018-08-09T14:15:30.694Z,18.20
2018-08-09T14:17:58.674Z,18.00
2018-08-09T14:20:26.582Z,18.00
2018-08-09T14:22:54.596Z,17.90
2018-08-09T14:25:22.525Z,18.00
2018-08-09T14:27:50.428Z,18.00
2018-08-09T14:30:18.296Z,18.10
2018-08-09T14:32:46.160Z,18.10
2018-08-09T14:35:15.239Z,18.10
2018-08-09T14:37:44.736Z,18.20
2018-08-09T14:40:13.106Z,18.30
2018-08-09T14:42:41.089Z,18.30
2018-08-09T14:45:11.193Z,18.30
2018-08-09T14:47:39.159Z,18.30
2018-08-09T14:50:07.232Z,18.40
2018-08-09T14:52:35.404Z,18.60
2018-08-09T14:55:03.913Z,18.70
2018-08-09T14:57:31.803Z,18.90
2018-08-09T14:59:59.621Z,18.80
2018-08-09T15:02:27.532Z,18.80
2018-08-09T15:04:55.424Z,18.80
2018-08-09T15:07:23.255Z,18.90
2018-08-09T15:09:51.074Z,19.00
2018-08-09T15:12:18.866Z,19.00
2018-08-09T15:14:46.666Z,19.00
2018-08-09T15:17:14.464Z,19.00
2018-08-09T15:19:42.305Z,19.60
2018-08-09T15:22:10.215Z,20.50
2018-08-09T15:24:38.060Z,21.50
2018-08-09T15:27:05.936Z,21.50
2018-08-09T15:29:33.795Z,21.00
2018-08-09T15:32:01.719Z,20.70
2018-08-09T15:34:30.681Z,20.30
2018-08-09T15:36:58.490Z,19.60
2018-08-09T15:39:26.438Z,19.40
2018-08-09T15:41:54.237Z,19.10
2018-08-09T15:44:25.978Z,19.10
2018-08-09T15:47:37.882Z,19.60
2018-08-09T15:50:07.315Z,20.10
2018-08-09T15:52:35.385Z,19.60
2018-08-09T15:55:03.300Z,19.20
2018-08-09T15:57:31.243Z,18.80
2018-08-09T15:59:59.041Z,18.50
2018-08-09T16:02:26.997Z,18.30
2018-08-09T16:04:54.981Z,18.10
2018-08-09T16:07:24.943Z,18.00
2018-08-09T16:09:52.829Z,17.90
2018-08-09T16:12:20.631Z,18.00
2018-08-09T16:14:48.476Z,18.10
2018-08-09T16:17:16.303Z,18.20
2018-08-09T16:19:45.187Z,18.30
2018-08-09T16:22:13.008Z,18.30
2018-08-09T16:24:40.884Z,18.30
2018-08-09T16:27:08.795Z,18.30
2018-08-09T16:29:36.703Z,18.40
2018-08-09T16:32:04.764Z,18.50
2018-08-09T16:38:07.106Z,19.30
2018-08-09T16:40:34.988Z,19.40
2018-08-09T16:43:09.960Z,19.30
2018-08-09T16:45:38.879Z,19.10
2018-08-09T16:48:06.744Z,18.90
2018-08-09T16:50:34.544Z,18.90
2018-08-09T16:53:02.359Z,18.80
2018-08-09T16:55:31.199Z,18.70
2018-08-09T16:57:58.981Z,18.60
2018-08-09T17:00:26.776Z,18.60
2018-08-09T17:02:54.969Z,18.60
2018-08-09T17:05:24.037Z,18.40
2018-08-09T17:07:51.917Z,18.30
2018-08-09T17:10:21.785Z,18.20
2018-08-09T17:12:49.777Z,18.10
2018-08-09T17:15:19.017Z,18.00
2018-08-09T17:17:46.814Z,18.00
2018-08-09T17:20:19.774Z,18.00
2018-08-09T17:22:47.616Z,18.00
2018-08-09T17:25:15.545Z,17.90
2018-08-09T17:27:44.462Z,17.80
2018-08-09T17:30:14.985Z,17.70
2018-08-09T17:32:43.685Z,17.50
2018-08-09T17:35:12.515Z,17.30
2018-08-09T17:37:40.407Z,17.20
2018-08-09T17:40:12.878Z,17.10
2018-08-09T17:42:40.698Z,17.10
2018-08-09T17:45:09.748Z,16.90
2018-08-09T17:47:37.648Z,16.80
2018-08-09T17:50:18.766Z,16.70
2018-08-09T17:52:46.736Z,16.70
2018-08-09T17:55:15.320Z,16.60
2018-08-09T17:57:45.178Z,16.60
2018-08-09T18:00:17.904Z,16.60
2018-08-09T18:02:46.769Z,16.60
2018-08-09T18:05:14.713Z,16.50
2018-08-09T18:07:43.053Z,16.50
2018-08-09T18:10:13.077Z,16.40
2018-08-09T18:12:42.015Z,16.40
2018-08-09T18:15:09.862Z,16.30
2018-08-09T18:17:38.727Z,16.30
2018-08-09T18:20:11.609Z,16.30
2018-08-09T18:22:39.657Z,16.30
2018-08-09T18:25:08.678Z,16.20
2018-08-09T18:27:36.854Z,16.20
2018-08-09T18:30:07.255Z,16.10
2018-08-09T18:32:35.130Z,16.10
2018-08-09T18:35:03.801Z,16.10
2018-08-09T18:37:32.490Z,16.00
2018-08-09T18:40:01.076Z,16.10
2018-08-09T18:42:29.020Z,16.10
2018-08-09T18:44:56.895Z,16.10
2018-08-09T18:47:24.945Z,16.10
2018-08-09T18:49:56.262Z,16.00
2018-08-09T18:52:24.088Z,16.10
2018-08-09T18:54:52.947Z,16.10
2018-08-09T18:57:20.882Z,16.00
2018-08-09T18:59:48.697Z,15.90
2018-08-09T19:02:16.479Z,15.80
2018-08-09T19:04:44.398Z,15.80
2018-08-09T19:07:12.151Z,15.70
2018-08-09T19:09:39.991Z,15.70
2018-08-09T19:12:07.840Z,15.60
2018-08-09T19:14:36.636Z,15.60
2018-08-09T19:17:04.440Z,15.60
2018-08-09T19:19:36.007Z,15.40
2018-08-09T19:22:14.481Z,15.30
2018-08-09T19:24:42.355Z,15.30
2018-08-09T19:27:10.198Z,15.30
2018-08-09T19:29:38.092Z,15.20
2018-08-09T19:32:05.934Z,15.20
2018-08-09T19:34:33.835Z,15.20
2018-08-09T19:37:01.667Z,15.20
2018-08-09T19:39:29.596Z,15.20
2018-08-09T19:41:57.972Z,15.20
2018-08-09T19:44:25.974Z,15.30
2018-08-09T19:46:53.779Z,15.30
2018-08-09T19:49:21.684Z,15.30
2018-08-09T19:51:49.479Z,15.30
2018-08-09T19:54:17.307Z,15.30
2018-08-09T19:56:45.178Z,15.30
2018-08-09T19:59:12.991Z,15.30
2018-08-09T20:01:40.966Z,15.30
2018-08-09T20:04:08.830Z,15.30
2018-08-09T20:06:36.654Z,15.30
2018-08-09T20:09:07.179Z,15.20
2018-08-09T20:11:35.097Z,15.20
2018-08-09T20:14:03.480Z,15.20
2018-08-09T20:16:31.392Z,15.20
2018-08-09T20:18:59.356Z,15.20
2018-08-09T20:21:27.360Z,15.20
2018-08-09T20:23:55.183Z,15.20
2018-08-09T20:26:23.021Z,15.10
2018-08-09T20:28:52.974Z,15.10
2018-08-09T20:31:20.974Z,15.10
2018-08-09T20:33:48.939Z,15.10
2018-08-09T20:36:17.938Z,15.00
2018-08-09T20:38:45.892Z,14.80
2018-08-09T20:41:13.698Z,14.80
2018-08-09T20:43:41.486Z,14.60
2018-08-09T20:46:09.307Z,14.50
2018-08-09T20:48:37.907Z,14.50
2018-08-09T20:51:06.394Z,14.40
2018-08-09T20:53:36.183Z,14.40
2018-08-09T20:56:05.662Z,14.40
2018-08-09T20:58:33.649Z,14.30
2018-08-09T21:01:01.663Z,14.30
2018-08-09T21:03:29.470Z,14.10
2018-08-09T21:05:57.427Z,14.00
2018-08-09T21:08:25.301Z,13.90
2018-08-09T21:10:53.967Z,13.90
2018-08-09T21:13:21.914Z,13.90
2018-08-09T21:15:49.860Z,13.90
2018-08-09T21:18:17.785Z,13.80
2018-08-09T21:20:45.863Z,13.70
2018-08-09T21:23:13.823Z,13.60
2018-08-09T21:25:41.616Z,13.60
2018-08-09T21:28:09.546Z,13.50
2018-08-09T21:30:37.556Z,13.40
2018-08-09T21:33:07.511Z,13.40
2018-08-09T21:35:35.411Z,13.30
2018-08-09T21:38:03.816Z,13.10
2018-08-09T21:40:31.577Z,13.10
2018-08-09T21:42:59.495Z,13.00
2018-08-09T21:45:27.347Z,13.00
2018-08-09T21:47:55.232Z,12.90
2018-08-09T21:50:30.958Z,12.90
2018-08-09T21:52:58.813Z,12.90
2018-08-09T21:55:26.581Z,13.00
2018-08-09T21:57:54.403Z,13.00
2018-08-09T22:01:01.583Z,13.00
2018-08-09T22:03:31.449Z,13.00
2018-08-09T22:06:05.014Z,13.10
2018-08-09T22:08:38.465Z,13.10
2018-08-09T22:11:12.691Z,13.30
2018-08-09T22:13:46.160Z,13.30
2018-08-09T22:16:19.613Z,13.30
2018-08-09T22:18:53.106Z,13.30
2018-08-09T22:21:27.443Z,13.20
2018-08-09T22:23:55.299Z,13.20
2018-08-09T22:26:23.225Z,13.20
2018-08-09T22:28:51.182Z,13.20
2018-08-09T22:31:19.288Z,13.10
2018-08-09T22:33:47.245Z,13.10
2018-08-09T22:36:15.094Z,13.10
2018-08-09T22:38:42.933Z,13.20
2018-08-09T22:41:10.738Z,13.10
2018-08-09T22:43:38.624Z,13.10
2018-08-09T22:46:06.433Z,13.10
2018-08-09T22:48:34.179Z,13.10
2018-08-09T22:51:01.978Z,13.00
2018-08-09T22:53:29.784Z,13.00
2018-08-09T22:55:57.592Z,13.00
2018-08-09T22:58:25.343Z,13.00
2018-08-09T23:00:53.115Z,12.90
2018-08-09T23:03:20.901Z,12.90
2018-08-09T23:05:48.703Z,12.90
2018-08-09T23:08:16.588Z,13.00
2018-08-09T23:10:44.843Z,13.00
2018-08-09T23:13:13.496Z,13.00
2018-08-09T23:15:42.170Z,13.10
2018-08-09T23:18:10.045Z,13.00
2018-08-09T23:20:39.239Z,13.00
2018-08-09T23:23:07.016Z,13.00
2018-08-09T23:25:34.843Z,13.00
2018-08-09T23:28:02.632Z,13.10
2018-08-09T23:30:30.539Z,13.10
2018-08-09T23:32:58.349Z,13.10
2018-08-09T23:35:27.136Z,13.10
2018-08-09T23:37:55.025Z,13.10
2018-08-09T23:40:22.846Z,13.30
2018-08-09T23:42:50.635Z,13.30
2018-08-09T23:45:18.367Z,13.30
2018-08-09T23:47:46.148Z,13.30
2018-08-09T23:50:13.988Z,13.30
2018-08-09T23:52:41.911Z,13.20
2018-08-09T23:55:13.189Z,13.30
2018-08-09T23:57:44.632Z,13.20
